sensor_id;sensor_type;location;lat;lon;timestamp;P1;durP1;ratioP1;P2;durP2;ratioP2
83694;SDS011;73676;43.582;22.268;2024-01-06T00:01:00;334.50;;;172.98;;
83694;SDS011;73676;43.582;22.268;2024-01-06T00:03:26;364.40;;;199.35;;
83694;SDS011;73676;43.582;22.268;2024-01-06T00:05:51;383.45;;;198.93;;
83694;SDS011;73676;43.582;22.268;2024-01-06T00:08:16;316.20;;;175.02;;
83694;SDS011;73676;43.582;22.268;2024-01-06T00:10:41;315.85;;;171.30;;
83694;SDS011;73676;43.582;22.268;2024-01-06T00:13:07;412.98;;;221.80;;
83694;SDS011;73676;43.582;22.268;2024-01-06T00:15:32;393.83;;;212.65;;
83694;SDS011;73676;43.582;22.268;2024-01-06T00:17:57;381.52;;;198.73;;
83694;SDS011;73676;43.582;22.268;2024-01-06T00:20:23;290.70;;;143.20;;
83694;SDS011;73676;43.582;22.268;2024-01-06T00:22:48;265.27;;;135.23;;
83694;SDS011;73676;43.582;22.268;2024-01-06T00:25:13;334.65;;;169.57;;
83694;SDS011;73676;43.582;22.268;2024-01-06T00:27:39;364.60;;;191.88;;
83694;SDS011;73676;43.582;22.268;2024-01-06T00:30:04;387.92;;;209.77;;
83694;SDS011;73676;43.582;22.268;2024-01-06T00:32:29;388.08;;;207.02;;
83694;SDS011;73676;43.582;22.268;2024-01-06T00:34:55;350.35;;;186.35;;
83694;SDS011;73676;43.582;22.268;2024-01-06T00:37:20;268.40;;;141.88;;
83694;SDS011;73676;43.582;22.268;2024-01-06T00:39:45;235.45;;;127.82;;
83694;SDS011;73676;43.582;22.268;2024-01-06T00:42:11;238.05;;;128.10;;
83694;SDS011;73676;43.582;22.268;2024-01-06T00:44:36;253.93;;;135.07;;
83694;SDS011;73676;43.582;22.268;2024-01-06T00:47:02;212.20;;;112.65;;
83694;SDS011;73676;43.582;22.268;2024-01-06T00:49:27;220.93;;;123.10;;
83694;SDS011;73676;43.582;22.268;2024-01-06T00:51:53;201.00;;;109.43;;
83694;SDS011;73676;43.582;22.268;2024-01-06T00:54:18;189.02;;;103.00;;
83694;SDS011;73676;43.582;22.268;2024-01-06T00:56:43;214.68;;;119.75;;
83694;SDS011;73676;43.582;22.268;2024-01-06T00:59:09;156.23;;;87.90;;
83694;SDS011;73676;43.582;22.268;2024-01-06T01:01:34;124.47;;;70.70;;
83694;SDS011;73676;43.582;22.268;2024-01-06T01:03:59;84.82;;;50.45;;
83694;SDS011;73676;43.582;22.268;2024-01-06T01:06:25;104.47;;;59.42;;
83694;SDS011;73676;43.582;22.268;2024-01-06T01:08:50;59.88;;;35.72;;
83694;SDS011;73676;43.582;22.268;2024-01-06T01:11:15;88.75;;;51.35;;
83694;SDS011;73676;43.582;22.268;2024-01-06T01:13:41;107.85;;;56.47;;
83694;SDS011;73676;43.582;22.268;2024-01-06T01:16:06;28.63;;;16.45;;
83694;SDS011;73676;43.582;22.268;2024-01-06T01:18:31;160.88;;;82.20;;
83694;SDS011;73676;43.582;22.268;2024-01-06T01:20:57;18.58;;;12.48;;
83694;SDS011;73676;43.582;22.268;2024-01-06T01:23:22;14.90;;;9.20;;
83694;SDS011;73676;43.582;22.268;2024-01-06T01:25:47;23.85;;;14.27;;
83694;SDS011;73676;43.582;22.268;2024-01-06T01:28:13;54.40;;;33.17;;
83694;SDS011;73676;43.582;22.268;2024-01-06T01:30:38;51.28;;;32.88;;
83694;SDS011;73676;43.582;22.268;2024-01-06T01:33:03;49.70;;;32.75;;
83694;SDS011;73676;43.582;22.268;2024-01-06T01:35:29;43.90;;;28.35;;
83694;SDS011;73676;43.582;22.268;2024-01-06T01:37:54;53.38;;;35.67;;
83694;SDS011;73676;43.582;22.268;2024-01-06T01:40:19;55.13;;;35.17;;
83694;SDS011;73676;43.582;22.268;2024-01-06T01:42:45;29.98;;;17.83;;
83694;SDS011;73676;43.582;22.268;2024-01-06T01:45:11;38.22;;;22.50;;
83694;SDS011;73676;43.582;22.268;2024-01-06T01:47:36;43.45;;;26.15;;
83694;SDS011;73676;43.582;22.268;2024-01-06T01:50:04;36.50;;;23.70;;
83694;SDS011;73676;43.582;22.268;2024-01-06T01:52:30;37.95;;;22.73;;
83694;SDS011;73676;43.582;22.268;2024-01-06T01:54:56;31.05;;;17.92;;
83694;SDS011;73676;43.582;22.268;2024-01-06T01:57:22;27.15;;;15.93;;
83694;SDS011;73676;43.582;22.268;2024-01-06T01:59:49;34.38;;;18.73;;
83694;SDS011;73676;43.582;22.268;2024-01-06T02:02:15;31.77;;;19.80;;
83694;SDS011;73676;43.582;22.268;2024-01-06T02:04:40;33.40;;;20.38;;
83694;SDS011;73676;43.582;22.268;2024-01-06T02:07:06;30.88;;;17.77;;
83694;SDS011;73676;43.582;22.268;2024-01-06T02:09:31;52.83;;;29.00;;
83694;SDS011;73676;43.582;22.268;2024-01-06T02:11:57;160.32;;;67.25;;
83694;SDS011;73676;43.582;22.268;2024-01-06T02:14:23;34.22;;;18.95;;
83694;SDS011;73676;43.582;22.268;2024-01-06T02:16:48;33.65;;;18.52;;
83694;SDS011;73676;43.582;22.268;2024-01-06T02:19:13;25.23;;;14.15;;
83694;SDS011;73676;43.582;22.268;2024-01-06T02:21:41;45.33;;;24.85;;
83694;SDS011;73676;43.582;22.268;2024-01-06T02:24:06;27.17;;;15.82;;
83694;SDS011;73676;43.582;22.268;2024-01-06T02:26:32;24.45;;;14.85;;
83694;SDS011;73676;43.582;22.268;2024-01-06T02:28:57;27.58;;;16.67;;
83694;SDS011;73676;43.582;22.268;2024-01-06T02:31:22;29.40;;;17.70;;
83694;SDS011;73676;43.582;22.268;2024-01-06T02:33:47;35.60;;;20.40;;
83694;SDS011;73676;43.582;22.268;2024-01-06T02:36:13;22.92;;;12.68;;
83694;SDS011;73676;43.582;22.268;2024-01-06T02:38:38;29.45;;;15.23;;
83694;SDS011;73676;43.582;22.268;2024-01-06T02:41:03;60.42;;;29.80;;
83694;SDS011;73676;43.582;22.268;2024-01-06T02:43:29;29.38;;;17.35;;
83694;SDS011;73676;43.582;22.268;2024-01-06T02:45:54;22.85;;;12.82;;
83694;SDS011;73676;43.582;22.268;2024-01-06T02:48:19;34.50;;;21.65;;
83694;SDS011;73676;43.582;22.268;2024-01-06T02:50:45;17.60;;;11.55;;
83694;SDS011;73676;43.582;22.268;2024-01-06T02:53:10;14.18;;;9.77;;
83694;SDS011;73676;43.582;22.268;2024-01-06T02:55:37;23.77;;;13.52;;
83694;SDS011;73676;43.582;22.268;2024-01-06T02:58:03;42.50;;;19.38;;
83694;SDS011;73676;43.582;22.268;2024-01-06T03:00:29;513.28;;;224.52;;
83694;SDS011;73676;43.582;22.268;2024-01-06T03:02:55;45.70;;;24.85;;
83694;SDS011;73676;43.582;22.268;2024-01-06T03:05:20;35.03;;;20.77;;
83694;SDS011;73676;43.582;22.268;2024-01-06T03:07:45;24.15;;;16.40;;
83694;SDS011;73676;43.582;22.268;2024-01-06T03:10:11;20.83;;;12.43;;
83694;SDS011;73676;43.582;22.268;2024-01-06T03:12:36;26.80;;;15.35;;
83694;SDS011;73676;43.582;22.268;2024-01-06T03:15:01;26.63;;;16.85;;
83694;SDS011;73676;43.582;22.268;2024-01-06T03:17:26;29.63;;;17.55;;
83694;SDS011;73676;43.582;22.268;2024-01-06T03:19:53;21.88;;;14.18;;
83694;SDS011;73676;43.582;22.268;2024-01-06T03:22:19;29.80;;;17.40;;
83694;SDS011;73676;43.582;22.268;2024-01-06T03:24:44;26.42;;;15.10;;
83694;SDS011;73676;43.582;22.268;2024-01-06T03:27:10;24.02;;;15.50;;
83694;SDS011;73676;43.582;22.268;2024-01-06T03:29:35;30.52;;;18.33;;
83694;SDS011;73676;43.582;22.268;2024-01-06T03:32:01;34.17;;;19.50;;
83694;SDS011;73676;43.582;22.268;2024-01-06T03:34:26;31.38;;;18.08;;
83694;SDS011;73676;43.582;22.268;2024-01-06T03:36:51;37.33;;;22.48;;
83694;SDS011;73676;43.582;22.268;2024-01-06T03:39:17;42.45;;;24.15;;
83694;SDS011;73676;43.582;22.268;2024-01-06T03:41:42;30.65;;;19.27;;
83694;SDS011;73676;43.582;22.268;2024-01-06T03:44:07;57.40;;;34.75;;
83694;SDS011;73676;43.582;22.268;2024-01-06T03:46:34;53.03;;;30.42;;
83694;SDS011;73676;43.582;22.268;2024-01-06T03:48:59;63.65;;;40.72;;
83694;SDS011;73676;43.582;22.268;2024-01-06T03:51:24;98.70;;;54.80;;
83694;SDS011;73676;43.582;22.268;2024-01-06T03:53:50;82.60;;;46.33;;
83694;SDS011;73676;43.582;22.268;2024-01-06T03:56:15;130.15;;;65.80;;
83694;SDS011;73676;43.582;22.268;2024-01-06T03:58:40;133.07;;;73.78;;
83694;SDS011;73676;43.582;22.268;2024-01-06T04:01:06;132.00;;;69.43;;
83694;SDS011;73676;43.582;22.268;2024-01-06T04:03:31;132.15;;;68.03;;
83694;SDS011;73676;43.582;22.268;2024-01-06T04:05:56;135.15;;;69.72;;
83694;SDS011;73676;43.582;22.268;2024-01-06T04:08:22;118.57;;;60.80;;
83694;SDS011;73676;43.582;22.268;2024-01-06T04:10:47;102.75;;;58.25;;
83694;SDS011;73676;43.582;22.268;2024-01-06T04:13:12;117.22;;;61.50;;
83694;SDS011;73676;43.582;22.268;2024-01-06T04:15:38;115.45;;;67.22;;
83694;SDS011;73676;43.582;22.268;2024-01-06T04:18:03;146.82;;;83.05;;
83694;SDS011;73676;43.582;22.268;2024-01-06T04:20:29;144.38;;;77.78;;
83694;SDS011;73676;43.582;22.268;2024-01-06T04:22:54;148.27;;;81.43;;
83694;SDS011;73676;43.582;22.268;2024-01-06T04:25:20;137.20;;;74.75;;
83694;SDS011;73676;43.582;22.268;2024-01-06T04:27:46;135.45;;;74.80;;
83694;SDS011;73676;43.582;22.268;2024-01-06T04:30:12;141.63;;;70.50;;
83694;SDS011;73676;43.582;22.268;2024-01-06T04:32:38;130.32;;;74.20;;
83694;SDS011;73676;43.582;22.268;2024-01-06T04:35:03;130.23;;;70.53;;
83694;SDS011;73676;43.582;22.268;2024-01-06T04:37:29;94.25;;;54.17;;
83694;SDS011;73676;43.582;22.268;2024-01-06T04:39:54;80.55;;;47.45;;
83694;SDS011;73676;43.582;22.268;2024-01-06T04:42:19;133.90;;;69.63;;
83694;SDS011;73676;43.582;22.268;2024-01-06T04:44:47;112.20;;;62.60;;
83694;SDS011;73676;43.582;22.268;2024-01-06T04:47:12;96.28;;;55.67;;
83694;SDS011;73676;43.582;22.268;2024-01-06T04:49:37;80.07;;;45.17;;
83694;SDS011;73676;43.582;22.268;2024-01-06T04:52:03;50.38;;;29.95;;
83694;SDS011;73676;43.582;22.268;2024-01-06T04:54:28;47.35;;;25.73;;
83694;SDS011;73676;43.582;22.268;2024-01-06T04:56:53;49.58;;;27.08;;
83694;SDS011;73676;43.582;22.268;2024-01-06T04:59:19;39.42;;;23.88;;
83694;SDS011;73676;43.582;22.268;2024-01-06T05:01:44;39.70;;;24.08;;
83694;SDS011;73676;43.582;22.268;2024-01-06T05:04:10;40.00;;;23.20;;
83694;SDS011;73676;43.582;22.268;2024-01-06T05:06:35;34.22;;;20.90;;
83694;SDS011;73676;43.582;22.268;2024-01-06T05:09:00;34.05;;;20.73;;
83694;SDS011;73676;43.582;22.268;2024-01-06T05:11:25;34.80;;;21.05;;
83694;SDS011;73676;43.582;22.268;2024-01-06T05:13:51;35.40;;;20.73;;
83694;SDS011;73676;43.582;22.268;2024-01-06T05:16:16;28.92;;;19.13;;
83694;SDS011;73676;43.582;22.268;2024-01-06T05:18:41;26.20;;;16.42;;
83694;SDS011;73676;43.582;22.268;2024-01-06T05:21:07;30.52;;;17.42;;
83694;SDS011;73676;43.582;22.268;2024-01-06T05:23:32;24.10;;;15.00;;
83694;SDS011;73676;43.582;22.268;2024-01-06T05:25:57;23.13;;;16.73;;
83694;SDS011;73676;43.582;22.268;2024-01-06T05:28:23;24.92;;;15.60;;
83694;SDS011;73676;43.582;22.268;2024-01-06T05:30:48;24.30;;;16.95;;
83694;SDS011;73676;43.582;22.268;2024-01-06T05:33:13;30.10;;;18.20;;
83694;SDS011;73676;43.582;22.268;2024-01-06T05:35:40;24.75;;;17.25;;
83694;SDS011;73676;43.582;22.268;2024-01-06T05:38:05;39.78;;;24.77;;
83694;SDS011;73676;43.582;22.268;2024-01-06T05:40:31;44.17;;;29.67;;
83694;SDS011;73676;43.582;22.268;2024-01-06T05:42:56;34.50;;;22.33;;
83694;SDS011;73676;43.582;22.268;2024-01-06T05:45:22;38.85;;;26.60;;
83694;SDS011;73676;43.582;22.268;2024-01-06T05:47:47;34.35;;;22.58;;
83694;SDS011;73676;43.582;22.268;2024-01-06T05:50:14;47.58;;;29.50;;
83694;SDS011;73676;43.582;22.268;2024-01-06T05:52:40;45.83;;;32.22;;
83694;SDS011;73676;43.582;22.268;2024-01-06T05:55:06;42.05;;;28.60;;
83694;SDS011;73676;43.582;22.268;2024-01-06T05:57:31;35.08;;;22.67;;
83694;SDS011;73676;43.582;22.268;2024-01-06T05:59:56;32.20;;;20.40;;
83694;SDS011;73676;43.582;22.268;2024-01-06T06:02:22;31.58;;;20.60;;
83694;SDS011;73676;43.582;22.268;2024-01-06T06:04:47;40.53;;;26.63;;
83694;SDS011;73676;43.582;22.268;2024-01-06T06:07:12;37.40;;;24.10;;
83694;SDS011;73676;43.582;22.268;2024-01-06T06:09:38;45.30;;;26.95;;
83694;SDS011;73676;43.582;22.268;2024-01-06T06:12:05;50.78;;;29.63;;
83694;SDS011;73676;43.582;22.268;2024-01-06T06:14:30;51.50;;;27.50;;
83694;SDS011;73676;43.582;22.268;2024-01-06T06:16:55;52.67;;;28.05;;
83694;SDS011;73676;43.582;22.268;2024-01-06T06:19:22;46.08;;;28.67;;
83694;SDS011;73676;43.582;22.268;2024-01-06T06:21:47;101.00;;;42.55;;
83694;SDS011;73676;43.582;22.268;2024-01-06T06:24:13;87.00;;;39.97;;
83694;SDS011;73676;43.582;22.268;2024-01-06T06:26:38;58.53;;;33.67;;
83694;SDS011;73676;43.582;22.268;2024-01-06T06:29:04;52.03;;;29.65;;
83694;SDS011;73676;43.582;22.268;2024-01-06T06:31:29;29.88;;;18.42;;
83694;SDS011;73676;43.582;22.268;2024-01-06T06:33:54;54.92;;;29.17;;
83694;SDS011;73676;43.582;22.268;2024-01-06T06:36:20;46.08;;;29.30;;
83694;SDS011;73676;43.582;22.268;2024-01-06T06:38:45;56.17;;;35.42;;
83694;SDS011;73676;43.582;22.268;2024-01-06T06:41:10;56.20;;;32.50;;
83694;SDS011;73676;43.582;22.268;2024-01-06T06:43:36;53.22;;;30.85;;
83694;SDS011;73676;43.582;22.268;2024-01-06T06:46:01;31.20;;;19.42;;
83694;SDS011;73676;43.582;22.268;2024-01-06T06:48:27;25.92;;;17.83;;
83694;SDS011;73676;43.582;22.268;2024-01-06T06:50:52;25.80;;;17.85;;
83694;SDS011;73676;43.582;22.268;2024-01-06T06:53:18;37.67;;;21.00;;
83694;SDS011;73676;43.582;22.268;2024-01-06T06:55:43;49.13;;;29.45;;
83694;SDS011;73676;43.582;22.268;2024-01-06T06:58:08;43.33;;;26.00;;
83694;SDS011;73676;43.582;22.268;2024-01-06T07:00:34;52.50;;;27.27;;
83694;SDS011;73676;43.582;22.268;2024-01-06T07:03:00;48.72;;;26.35;;
83694;SDS011;73676;43.582;22.268;2024-01-06T07:05:25;61.45;;;31.98;;
83694;SDS011;73676;43.582;22.268;2024-01-06T07:07:50;65.07;;;37.08;;
83694;SDS011;73676;43.582;22.268;2024-01-06T07:10:16;69.70;;;43.42;;
83694;SDS011;73676;43.582;22.268;2024-01-06T07:12:41;52.97;;;33.13;;
83694;SDS011;73676;43.582;22.268;2024-01-06T07:15:07;50.03;;;29.92;;
83694;SDS011;73676;43.582;22.268;2024-01-06T07:17:35;60.35;;;35.45;;
83694;SDS011;73676;43.582;22.268;2024-01-06T07:20:00;44.75;;;28.63;;
83694;SDS011;73676;43.582;22.268;2024-01-06T07:22:25;40.80;;;27.35;;
83694;SDS011;73676;43.582;22.268;2024-01-06T07:24:51;46.00;;;27.95;;
83694;SDS011;73676;43.582;22.268;2024-01-06T07:27:16;43.95;;;25.13;;
83694;SDS011;73676;43.582;22.268;2024-01-06T07:29:41;54.65;;;28.40;;
83694;SDS011;73676;43.582;22.268;2024-01-06T07:32:07;40.67;;;22.60;;
83694;SDS011;73676;43.582;22.268;2024-01-06T07:34:32;72.78;;;42.10;;
83694;SDS011;73676;43.582;22.268;2024-01-06T07:36:58;54.05;;;32.58;;
83694;SDS011;73676;43.582;22.268;2024-01-06T07:39:23;60.88;;;36.92;;
83694;SDS011;73676;43.582;22.268;2024-01-06T07:41:49;64.30;;;39.85;;
83694;SDS011;73676;43.582;22.268;2024-01-06T07:44:16;61.10;;;37.72;;
83694;SDS011;73676;43.582;22.268;2024-01-06T07:46:47;110.07;;;57.55;;
83694;SDS011;73676;43.582;22.268;2024-01-06T07:49:12;65.32;;;40.85;;
83694;SDS011;73676;43.582;22.268;2024-01-06T07:51:38;74.18;;;44.90;;
83694;SDS011;73676;43.582;22.268;2024-01-06T07:54:03;106.85;;;57.25;;
83694;SDS011;73676;43.582;22.268;2024-01-06T07:56:30;94.28;;;52.38;;
83694;SDS011;73676;43.582;22.268;2024-01-06T07:58:55;99.05;;;54.78;;
83694;SDS011;73676;43.582;22.268;2024-01-06T08:01:21;72.68;;;45.33;;
83694;SDS011;73676;43.582;22.268;2024-01-06T08:03:46;77.90;;;44.40;;
83694;SDS011;73676;43.582;22.268;2024-01-06T08:06:11;57.55;;;36.58;;
83694;SDS011;73676;43.582;22.268;2024-01-06T08:08:37;65.18;;;41.60;;
83694;SDS011;73676;43.582;22.268;2024-01-06T08:11:02;47.80;;;32.47;;
83694;SDS011;73676;43.582;22.268;2024-01-06T08:13:27;49.35;;;31.08;;
83694;SDS011;73676;43.582;22.268;2024-01-06T08:15:53;73.75;;;42.30;;
83694;SDS011;73676;43.582;22.268;2024-01-06T08:18:18;68.32;;;39.85;;
83694;SDS011;73676;43.582;22.268;2024-01-06T08:20:43;59.20;;;35.65;;
83694;SDS011;73676;43.582;22.268;2024-01-06T08:23:09;52.03;;;34.17;;
83694;SDS011;73676;43.582;22.268;2024-01-06T08:25:35;54.83;;;35.65;;
83694;SDS011;73676;43.582;22.268;2024-01-06T08:28:00;77.93;;;46.45;;
83694;SDS011;73676;43.582;22.268;2024-01-06T08:30:26;58.13;;;38.83;;
83694;SDS011;73676;43.582;22.268;2024-01-06T08:32:51;40.53;;;28.75;;
83694;SDS011;73676;43.582;22.268;2024-01-06T08:35:17;44.20;;;29.42;;
83694;SDS011;73676;43.582;22.268;2024-01-06T08:37:42;38.25;;;28.00;;
83694;SDS011;73676;43.582;22.268;2024-01-06T08:40:09;38.78;;;27.15;;
83694;SDS011;73676;43.582;22.268;2024-01-06T08:42:34;38.88;;;27.00;;
83694;SDS011;73676;43.582;22.268;2024-01-06T08:45:00;49.35;;;32.50;;
83694;SDS011;73676;43.582;22.268;2024-01-06T08:49:54;45.92;;;30.83;;
83694;SDS011;73676;43.582;22.268;2024-01-06T08:52:19;35.15;;;22.83;;
83694;SDS011;73676;43.582;22.268;2024-01-06T08:54:44;33.90;;;22.30;;
83694;SDS011;73676;43.582;22.268;2024-01-06T08:57:10;34.70;;;24.55;;
83694;SDS011;73676;43.582;22.268;2024-01-06T08:59:35;38.97;;;26.58;;
83694;SDS011;73676;43.582;22.268;2024-01-06T09:02:00;40.17;;;25.23;;
83694;SDS011;73676;43.582;22.268;2024-01-06T09:04:26;38.67;;;27.80;;
83694;SDS011;73676;43.582;22.268;2024-01-06T09:06:51;59.17;;;36.90;;
83694;SDS011;73676;43.582;22.268;2024-01-06T09:09:17;59.05;;;35.35;;
83694;SDS011;73676;43.582;22.268;2024-01-06T09:11:42;37.63;;;25.65;;
83694;SDS011;73676;43.582;22.268;2024-01-06T09:14:09;35.80;;;24.35;;
83694;SDS011;73676;43.582;22.268;2024-01-06T09:16:35;52.25;;;30.48;;
83694;SDS011;73676;43.582;22.268;2024-01-06T09:19:00;86.97;;;47.17;;
83694;SDS011;73676;43.582;22.268;2024-01-06T09:21:26;68.55;;;40.65;;
83694;SDS011;73676;43.582;22.268;2024-01-06T09:23:51;91.10;;;50.75;;
83694;SDS011;73676;43.582;22.268;2024-01-06T09:26:16;84.25;;;44.75;;
83694;SDS011;73676;43.582;22.268;2024-01-06T09:28:42;71.20;;;42.50;;
83694;SDS011;73676;43.582;22.268;2024-01-06T09:31:07;66.93;;;42.88;;
83694;SDS011;73676;43.582;22.268;2024-01-06T09:33:32;58.97;;;36.90;;
83694;SDS011;73676;43.582;22.268;2024-01-06T09:36:00;51.08;;;33.13;;
83694;SDS011;73676;43.582;22.268;2024-01-06T09:38:25;51.60;;;33.53;;
83694;SDS011;73676;43.582;22.268;2024-01-06T09:40:51;63.17;;;39.22;;
83694;SDS011;73676;43.582;22.268;2024-01-06T09:43:18;56.03;;;38.08;;
83694;SDS011;73676;43.582;22.268;2024-01-06T09:45:43;58.90;;;37.60;;
83694;SDS011;73676;43.582;22.268;2024-01-06T09:48:11;46.78;;;31.02;;
83694;SDS011;73676;43.582;22.268;2024-01-06T09:50:39;48.35;;;31.48;;
83694;SDS011;73676;43.582;22.268;2024-01-06T09:53:05;47.78;;;30.35;;
83694;SDS011;73676;43.582;22.268;2024-01-06T09:55:32;48.58;;;30.83;;
83694;SDS011;73676;43.582;22.268;2024-01-06T09:57:58;47.00;;;30.40;;
83694;SDS011;73676;43.582;22.268;2024-01-06T10:00:23;39.05;;;25.90;;
83694;SDS011;73676;43.582;22.268;2024-01-06T10:02:48;37.65;;;24.98;;
83694;SDS011;73676;43.582;22.268;2024-01-06T10:05:15;37.63;;;23.33;;
83694;SDS011;73676;43.582;22.268;2024-01-06T10:07:44;40.70;;;27.63;;
83694;SDS011;73676;43.582;22.268;2024-01-06T10:10:09;42.90;;;28.00;;
83694;SDS011;73676;43.582;22.268;2024-01-06T10:12:37;47.60;;;28.95;;
83694;SDS011;73676;43.582;22.268;2024-01-06T10:15:02;34.50;;;23.65;;
83694;SDS011;73676;43.582;22.268;2024-01-06T10:17:43;43.40;;;28.13;;
83694;SDS011;73676;43.582;22.268;2024-01-06T10:20:09;46.90;;;31.55;;
83694;SDS011;73676;43.582;22.268;2024-01-06T10:22:35;38.63;;;23.75;;
83694;SDS011;73676;43.582;22.268;2024-01-06T10:25:01;54.47;;;33.78;;
83694;SDS011;73676;43.582;22.268;2024-01-06T10:27:27;50.85;;;32.58;;
83694;SDS011;73676;43.582;22.268;2024-01-06T10:29:52;59.30;;;34.10;;
83694;SDS011;73676;43.582;22.268;2024-01-06T10:32:17;60.67;;;34.53;;
83694;SDS011;73676;43.582;22.268;2024-01-06T10:34:43;57.55;;;36.35;;
83694;SDS011;73676;43.582;22.268;2024-01-06T10:37:09;47.55;;;32.10;;
83694;SDS011;73676;43.582;22.268;2024-01-06T10:39:34;44.90;;;29.95;;
83694;SDS011;73676;43.582;22.268;2024-01-06T10:41:59;55.33;;;32.05;;
83694;SDS011;73676;43.582;22.268;2024-01-06T10:44:26;62.38;;;37.25;;
83694;SDS011;73676;43.582;22.268;2024-01-06T10:46:51;42.85;;;26.85;;
83694;SDS011;73676;43.582;22.268;2024-01-06T10:49:17;40.88;;;26.58;;
83694;SDS011;73676;43.582;22.268;2024-01-06T10:51:46;43.80;;;26.88;;
83694;SDS011;73676;43.582;22.268;2024-01-06T10:54:14;36.25;;;23.60;;
83694;SDS011;73676;43.582;22.268;2024-01-06T10:56:39;36.53;;;24.75;;
83694;SDS011;73676;43.582;22.268;2024-01-06T10:59:04;44.75;;;28.58;;
83694;SDS011;73676;43.582;22.268;2024-01-06T11:01:30;40.95;;;27.20;;
83694;SDS011;73676;43.582;22.268;2024-01-06T11:03:56;38.00;;;26.17;;
83694;SDS011;73676;43.582;22.268;2024-01-06T11:06:22;36.90;;;23.02;;
83694;SDS011;73676;43.582;22.268;2024-01-06T11:08:53;35.67;;;21.70;;
83694;SDS011;73676;43.582;22.268;2024-01-06T11:11:20;27.67;;;18.77;;
83694;SDS011;73676;43.582;22.268;2024-01-06T11:13:46;28.20;;;19.02;;
83694;SDS011;73676;43.582;22.268;2024-01-06T11:16:33;30.67;;;19.20;;
83694;SDS011;73676;43.582;22.268;2024-01-06T11:18:58;29.48;;;20.25;;
83694;SDS011;73676;43.582;22.268;2024-01-06T11:21:23;34.67;;;23.40;;
83694;SDS011;73676;43.582;22.268;2024-01-06T11:26:52;32.95;;;21.98;;
83694;SDS011;73676;43.582;22.268;2024-01-06T11:29:20;35.60;;;22.63;;
83694;SDS011;73676;43.582;22.268;2024-01-06T11:34:30;35.42;;;22.77;;
83694;SDS011;73676;43.582;22.268;2024-01-06T11:36:56;34.40;;;23.38;;
83694;SDS011;73676;43.582;22.268;2024-01-06T11:39:35;31.83;;;22.00;;
83694;SDS011;73676;43.582;22.268;2024-01-06T11:42:02;31.73;;;22.65;;
83694;SDS011;73676;43.582;22.268;2024-01-06T11:44:28;30.73;;;22.75;;
83694;SDS011;73676;43.582;22.268;2024-01-06T11:46:54;34.70;;;24.67;;
83694;SDS011;73676;43.582;22.268;2024-01-06T11:49:21;36.63;;;24.88;;
83694;SDS011;73676;43.582;22.268;2024-01-06T11:51:46;35.70;;;25.55;;
83694;SDS011;73676;43.582;22.268;2024-01-06T11:54:11;32.42;;;22.40;;
83694;SDS011;73676;43.582;22.268;2024-01-06T11:56:38;34.10;;;23.35;;
83694;SDS011;73676;43.582;22.268;2024-01-06T11:59:03;38.13;;;26.10;;
83694;SDS011;73676;43.582;22.268;2024-01-06T12:01:35;36.08;;;23.67;;
83694;SDS011;73676;43.582;22.268;2024-01-06T12:04:01;33.60;;;23.60;;
83694;SDS011;73676;43.582;22.268;2024-01-06T12:06:28;29.50;;;20.98;;
83694;SDS011;73676;43.582;22.268;2024-01-06T12:09:02;32.78;;;22.75;;
83694;SDS011;73676;43.582;22.268;2024-01-06T12:11:28;35.72;;;23.23;;
83694;SDS011;73676;43.582;22.268;2024-01-06T12:13:53;32.67;;;21.98;;
83694;SDS011;73676;43.582;22.268;2024-01-06T12:16:18;29.58;;;22.75;;
83694;SDS011;73676;43.582;22.268;2024-01-06T12:18:44;32.92;;;22.30;;
83694;SDS011;73676;43.582;22.268;2024-01-06T12:21:09;31.85;;;22.75;;
83694;SDS011;73676;43.582;22.268;2024-01-06T12:23:34;32.20;;;23.48;;
83694;SDS011;73676;43.582;22.268;2024-01-06T12:26:00;31.90;;;22.90;;
83694;SDS011;73676;43.582;22.268;2024-01-06T12:28:26;34.22;;;23.90;;
83694;SDS011;73676;43.582;22.268;2024-01-06T12:30:53;33.47;;;23.00;;
83694;SDS011;73676;43.582;22.268;2024-01-06T12:33:18;38.08;;;27.85;;
83694;SDS011;73676;43.582;22.268;2024-01-06T12:35:44;34.63;;;23.48;;
83694;SDS011;73676;43.582;22.268;2024-01-06T12:38:09;33.80;;;22.17;;
83694;SDS011;73676;43.582;22.268;2024-01-06T12:40:35;35.38;;;23.35;;
83694;SDS011;73676;43.582;22.268;2024-01-06T12:43:00;45.17;;;27.08;;
83694;SDS011;73676;43.582;22.268;2024-01-06T12:45:26;32.08;;;23.25;;
83694;SDS011;73676;43.582;22.268;2024-01-06T12:47:52;36.42;;;25.02;;
83694;SDS011;73676;43.582;22.268;2024-01-06T12:50:19;32.83;;;22.58;;
83694;SDS011;73676;43.582;22.268;2024-01-06T12:52:44;33.42;;;21.35;;
83694;SDS011;73676;43.582;22.268;2024-01-06T12:55:10;37.33;;;24.08;;
83694;SDS011;73676;43.582;22.268;2024-01-06T12:57:36;43.90;;;27.95;;
83694;SDS011;73676;43.582;22.268;2024-01-06T13:00:01;44.42;;;26.73;;
83694;SDS011;73676;43.582;22.268;2024-01-06T13:02:27;39.28;;;24.88;;
83694;SDS011;73676;43.582;22.268;2024-01-06T13:04:52;34.30;;;23.73;;
83694;SDS011;73676;43.582;22.268;2024-01-06T13:07:18;30.85;;;22.85;;
83694;SDS011;73676;43.582;22.268;2024-01-06T13:09:43;31.58;;;21.63;;
83694;SDS011;73676;43.582;22.268;2024-01-06T13:12:09;32.20;;;21.23;;
83694;SDS011;73676;43.582;22.268;2024-01-06T13:14:36;29.40;;;20.45;;
83694;SDS011;73676;43.582;22.268;2024-01-06T13:17:01;30.67;;;20.05;;
83694;SDS011;73676;43.582;22.268;2024-01-06T13:19:27;29.48;;;20.05;;
83694;SDS011;73676;43.582;22.268;2024-01-06T13:21:52;29.45;;;20.17;;
83694;SDS011;73676;43.582;22.268;2024-01-06T13:24:18;28.52;;;20.42;;
83694;SDS011;73676;43.582;22.268;2024-01-06T13:26:43;29.27;;;20.08;;
83694;SDS011;73676;43.582;22.268;2024-01-06T13:29:08;30.38;;;20.98;;
83694;SDS011;73676;43.582;22.268;2024-01-06T13:31:35;42.17;;;27.00;;
83694;SDS011;73676;43.582;22.268;2024-01-06T13:34:02;75.30;;;52.70;;
83694;SDS011;73676;43.582;22.268;2024-01-06T13:36:27;64.13;;;44.15;;
83694;SDS011;73676;43.582;22.268;2024-01-06T13:38:53;65.72;;;46.47;;
83694;SDS011;73676;43.582;22.268;2024-01-06T13:41:18;48.58;;;35.33;;
83694;SDS011;73676;43.582;22.268;2024-01-06T13:43:43;65.35;;;45.65;;
83694;SDS011;73676;43.582;22.268;2024-01-06T13:46:10;53.38;;;38.85;;
83694;SDS011;73676;43.582;22.268;2024-01-06T13:48:36;99.30;;;72.28;;
83694;SDS011;73676;43.582;22.268;2024-01-06T13:51:01;69.75;;;48.78;;
83694;SDS011;73676;43.582;22.268;2024-01-06T13:53:26;53.03;;;35.78;;
83694;SDS011;73676;43.582;22.268;2024-01-06T13:55:52;47.47;;;31.88;;
83694;SDS011;73676;43.582;22.268;2024-01-06T13:58:17;54.15;;;36.88;;
83694;SDS011;73676;43.582;22.268;2024-01-06T14:00:44;61.40;;;41.65;;
83694;SDS011;73676;43.582;22.268;2024-01-06T14:03:09;59.70;;;41.25;;
83694;SDS011;73676;43.582;22.268;2024-01-06T14:05:35;61.00;;;39.80;;